Chino Valley, AZ

3:54 PM MST on September 23, 2014 (GMT -0700)
Chino Valley 1 North | Change Station
CLOSE
Current Station
Personal Weather Station
Location: Chino Valley, AZ
Elevation: 4734 ft
Nearby Weather Stations

Elev 4734 ft 34.75 °N, 112.46 °W | Updated 3 seconds ago

Clear
Clear
86.9 °F
Feels Like 84 °F
N
4.0
Wind Variable Wind from SW
Gusts 10.0 mph

Today
High -- | Low -- °F
--% Chance of Precip.
Yesterday
High -- | Low -- °F
Precip. -- in
6:18 AM 6:25 PM
Waning Crescent, 0% visible
Pressure 29.94 in
Visibility 10.0 miles
Clouds Clear
Heat Index 84 °F
Dew Point 40 °F
Humidity 19%
Rainfall 0.00 in
Snow Depth 0 in
UV 6 out of 12
Pollen 6.80 out of 12
Air Quality Not available.
Flu Activity Not available.
METAR KPRC 232153Z 27004KT 10SM CLR 29/01 A3016 RMK AO2 SLP137 T02890006

More Conditions Fewer Conditions

Pressure 29.94 in
Visibility 10.0 miles
Clouds Clear
Heat Index 84 °F
Dew Point 40 °F
Humidity 19%
Rainfall 0.00 in
Snow Depth 0 in
UV 6 out of 12
Pollen 6.80 out of 12
Air Quality Not available.
Flu Activity Not available.
METAR KPRC 232153Z 27004KT 10SM CLR 29/01 A3016 RMK AO2 SLP137 T02890006

More Conditions Fewer Conditions

10-Day Weather Forecast

Almanac

Astronomy

Sep. 23, 2014 Rise Set
Actual Time 6:18 AM MST 6:25 PM MST
Civil Twilight 5:53 AM MST 6:50 PM MST
Nautical Twilight 5:24 AM MST 7:19 PM MST
Astronomical Twilight 4:54 AM MST 7:49 PM MST
Moon 5:46 AM MST 6:06 PM MST
Length of Visible Light 12h 56m
Length of Day
12h 06m
Tomorrow will be 2m 9s shorter.
Waning Crescent, 0% of the Moon is Illuminated
Today
Waning Crescent
Sep 24
New
Oct 1
First Quarter
Oct 8
Full
Oct 15
Last Quarter

Today's Extremes

State Highs State Lows

Community

WunderPhotos

Upload Photos

1,755,810 photos uploaded!

WunderBlogs® & News

Nearby

Snow Depth

Station Depth Elevation
Workman Creek 0 in 6900 ft

Earthquake Activity

City Distance Mag. Time & Date
No recent earthquake activity has been reported nearby.
Minimum magnitude displayed is 2.5.

Coastal Water Temperatures

Place Temperature
No Stations Reporting

Nearby Weather Stations